Time;durP1;ratioP1;P1;durP2;ratioP2;P2;SDS_P1;SDS_P2;PMS_P1;PMS_P2;Temp;Humidity;BMP_temperature;BMP_pressure;BME280_temperature;BME280_humidity;BME280_pressure;Samples;Min_cycle;Max_cycle;Signal;HPM_P1;HPM_P2
2023/04/14 00:02:18;;;;;;;2.77;2.57;;;;;;;16.04;39.26;98702.78;5091961;28;20477;-77
2023/04/14 00:04:50;;;;;;;2.90;2.60;;;;;;;16.40;39.14;98760.31;5095558;28;20099;-78
2023/04/14 00:07:15;;;;;;;4.60;2.67;;;;;;;16.00;38.70;98706.94;5095786;28;20099;-78
2023/04/14 00:09:41;;;;;;;2.78;2.53;;;;;;;16.35;38.91;98758.34;5095461;28;20194;-77
2023/04/14 00:12:06;;;;;;;3.33;2.55;;;;;;;16.01;38.68;98708.56;5095243;28;20081;-78
2023/04/14 00:14:32;;;;;;;4.53;3.00;;;;;;;16.31;38.57;98749.16;5095597;28;20020;-77
2023/04/14 00:16:57;;;;;;;4.10;3.10;;;;;;;16.28;38.79;98754.97;5095453;28;20536;-78
2023/04/14 00:19:22;;;;;;;3.35;2.92;;;;;;;15.93;38.39;98712.41;5095387;28;20028;-77
2023/04/14 00:21:48;;;;;;;2.97;2.63;;;;;;;15.86;38.78;98704.53;5095182;28;20548;-78
2023/04/14 00:24:13;;;;;;;2.67;2.47;;;;;;;16.18;38.62;98763.53;5094998;28;20030;-77
2023/04/14 00:26:39;;;;;;;3.95;2.97;;;;;;;15.85;39.09;98707.44;5094978;28;20512;-78
2023/04/14 00:29:04;;;;;;;4.72;3.10;;;;;;;16.04;38.64;98732.06;5095155;28;20020;-78
2023/04/14 00:31:29;;;;;;;3.08;2.80;;;;;;;16.25;38.63;98751.97;5093812;28;20020;-77
2023/04/14 00:33:55;;;;;;;3.95;2.88;;;;;;;16.26;38.74;98757.06;5095124;28;20032;-78
2023/04/14 00:36:20;;;;;;;3.17;2.58;;;;;;;16.18;38.85;98738.78;5094733;28;20023;-77
2023/04/14 00:38:46;;;;;;;3.03;2.75;;;;;;;16.07;38.52;98718.28;5095096;28;20055;-78
2023/04/14 00:41:11;;;;;;;4.05;3.15;;;;;;;15.70;38.75;98654.66;5094995;28;20401;-77
2023/04/14 00:43:36;;;;;;;3.33;2.60;;;;;;;16.29;38.73;98755.78;5093669;28;20023;-78
2023/04/14 00:46:02;;;;;;;7.18;2.92;;;;;;;16.32;38.76;98744.66;5094865;28;20106;-77
2023/04/14 00:48:28;;;;;;;4.82;3.50;;;;;;;16.36;38.59;98746.66;5094496;28;20028;-77
2023/04/14 00:50:53;;;;;;;5.43;3.33;;;;;;;16.11;38.78;98714.13;5094905;28;20039;-77
2023/04/14 00:53:19;;;;;;;5.45;3.75;;;;;;;16.21;38.67;98740.97;5094683;28;20485;-78
2023/04/14 00:55:45;;;;;;;3.45;3.10;;;;;;;16.21;38.76;98752.44;5093449;28;20032;-78
2023/04/14 00:58:12;;;;;;;4.20;3.17;;;;;;;15.88;38.63;98693.66;5094759;28;20028;-77
2023/04/14 01:00:37;;;;;;;4.32;3.15;;;;;;;16.24;38.71;98751.16;5094713;28;20116;-77
2023/04/14 01:03:03;;;;;;;3.20;2.63;;;;;;;15.84;38.69;98695.97;5094586;28;20062;-77
2023/04/14 01:05:28;;;;;;;4.35;2.80;;;;;;;15.79;38.83;98695.06;5094642;28;20069;-77
2023/04/14 01:07:54;;;;;;;5.45;3.65;;;;;;;16.03;39.19;98717.13;5094521;28;20024;-78
2023/04/14 01:10:20;;;;;;;4.88;3.40;;;;;;;15.55;39.51;98644.44;5094791;28;20038;-77
2023/04/14 01:13:00;;;;;;;5.13;3.97;;;;;;;16.17;39.31;98739.81;5094393;28;20107;-77
2023/04/14 01:15:37;;;;;;;7.18;3.60;;;;;;;16.13;39.73;98741.31;5093171;28;20394;-78
2023/04/14 01:18:07;;;;;;;4.10;3.33;;;;;;;16.06;39.58;98745.97;5114227;28;20024;-77
2023/04/14 01:20:47;;;;;;;3.97;3.53;;;;;;;15.59;39.99;98682.06;5107994;28;20055;-77
2023/04/14 01:23:26;;;;;;;3.92;3.58;;;;;;;16.00;40.43;98742.38;5094390;28;20024;-77
2023/04/14 01:26:09;;;;;;;6.78;4.03;;;;;;;15.96;40.28;98746.53;5092797;28;20076;-77
2023/04/14 01:29:16;;;;;;;6.78;3.80;;;;;;;15.88;40.68;98753.03;5094293;28;20040;-77
2023/04/14 01:32:04;;;;;;;5.18;3.90;;;;;;;15.85;40.87;98756.16;5093461;28;20493;-77
2023/04/14 01:34:42;;;;;;;3.60;3.08;;;;;;;15.41;40.99;98687.47;5093822;28;20040;-77
2023/04/14 01:37:14;;;;;;;4.28;3.55;;;;;;;15.84;41.35;98759.06;5093988;28;20031;-77
2023/04/14 01:39:44;;;;;;;5.53;3.65;;;;;;;15.82;41.37;98750.47;5094064;28;20027;-77
2023/04/14 01:42:13;;;;;;;5.82;3.75;;;;;;;15.71;41.63;98738.78;5099494;28;20032;-77
2023/04/14 01:44:41;;;;;;;4.63;3.40;;;;;;;15.29;41.50;98684.78;5096085;28;20027;-78
2023/04/14 01:47:10;;;;;;;4.88;3.53;;;;;;;15.75;41.78;98755.91;5093664;28;20111;-78
2023/04/14 01:49:38;;;;;;;4.90;4.15;;;;;;;15.69;41.89;98740.06;5093553;28;20050;-78
2023/04/14 01:52:08;;;;;;;4.75;3.88;;;;;;;15.24;42.15;98672.19;5092533;28;20536;-78
2023/04/14 01:54:36;;;;;;;6.60;4.22;;;;;;;15.75;42.32;98747.94;5093643;28;20093;-77
2023/04/14 01:57:04;;;;;;;6.07;3.60;;;;;;;15.42;42.48;98702.38;5093631;28;20034;-78
2023/04/14 01:59:32;;;;;;;5.22;4.57;;;;;;;15.34;42.84;98679.59;5093537;28;20059;-77
2023/04/14 02:02:00;;;;;;;6.05;4.55;;;;;;;15.25;43.36;98671.13;5093309;28;20038;-78
2023/04/14 02:04:28;;;;;;;5.72;4.40;;;;;;;15.11;42.92;98651.13;5093309;28;20026;-78
2023/04/14 02:06:57;;;;;;;5.38;4.13;;;;;;;15.60;43.33;98728.91;5093184;28;20051;-78
2023/04/14 02:09:25;;;;;;;4.72;4.22;;;;;;;15.43;43.27;98702.16;5093116;28;20024;-78
2023/04/14 02:11:53;;;;;;;6.55;4.05;;;;;;;15.50;43.59;98710.03;5092930;28;20481;-77
2023/04/14 02:14:20;;;;;;;5.95;4.13;;;;;;;15.43;43.48;98696.03;5091484;28;20100;-78
2023/04/14 02:16:47;;;;;;;6.18;4.65;;;;;;;15.77;43.74;98761.00;5093268;28;20028;-78
2023/04/14 02:19:17;;;;;;;4.50;3.92;;;;;;;15.10;43.70;98646.84;5093087;28;20028;-77
2023/04/14 02:21:45;;;;;;;5.43;4.80;;;;;;;15.11;43.52;98642.34;5093004;28;20389;-77
2023/04/14 02:24:10;;;;;;;6.57;4.18;;;;;;;15.27;43.80;98662.94;5092776;28;20027;-77
2023/04/14 02:26:41;;;;;;;6.10;4.43;;;;;;;15.30;44.09;98681.09;5092349;28;20547;-78
2023/04/14 02:29:12;;;;;;;6.28;5.22;;;;;;;15.57;44.61;98729.34;5093026;28;20594;-78
2023/04/14 02:31:54;;;;;;;4.82;4.43;;;;;;;15.21;44.97;98682.47;5092872;28;20055;-78
2023/04/14 02:34:23;;;;;;;;;;;;;;;15.47;45.93;98739.75;5093072;28;20039;-77
2023/04/14 02:36:52;;;;;;;6.78;5.28;;;;;;;15.21;45.41;98683.28;5092582;28;19908;-77
2023/04/14 02:39:33;;;;;;;7.03;5.80;;;;;;;15.46;46.61;98736.28;5092479;28;20107;-78
2023/04/14 02:42:02;;;;;;;6.63;5.65;;;;;;;14.86;48.29;98685.84;5092622;28;20103;-77
2023/04/14 02:44:34;;;;;;;8.65;5.35;;;;;;;14.96;48.63;98714.53;5092519;28;20027;-77
2023/04/14 02:47:08;;;;;;;7.03;5.90;;;;;;;15.26;49.48;98757.88;5092614;28;20035;-77
2023/04/14 02:49:36;;;;;;;7.88;5.95;;;;;;;15.25;49.50;98766.06;5092460;28;20043;-77
2023/04/14 02:52:04;;;;;;;8.77;6.07;;;;;;;14.68;50.21;98682.41;5091386;28;20031;-77
2023/04/14 02:54:34;;;;;;;8.18;5.82;;;;;;;15.21;49.95;98772.88;5092763;28;20128;-77
2023/04/14 02:57:01;;;;;;;9.60;6.13;;;;;;;14.89;50.11;98703.19;5092339;28;20036;-77
2023/04/14 02:59:28;;;;;;;6.82;5.78;;;;;;;14.83;50.55;98685.47;5092388;28;20035;-78
2023/04/14 03:01:58;;;;;;;9.15;6.18;;;;;;;15.10;50.74;98725.78;5091060;28;20085;-78
2023/04/14 03:04:25;;;;;;;10.57;6.20;;;;;;;15.03;50.73;98727.75;5092117;28;20024;-77
2023/04/14 03:06:53;;;;;;;7.97;6.70;;;;;;;14.57;50.69;98655.56;5092177;28;20027;-77
2023/04/14 03:09:20;;;;;;;6.40;5.50;;;;;;;14.71;51.33;98682.75;5090775;28;20118;-78
2023/04/14 03:11:46;;;;;;;9.82;6.25;;;;;;;15.25;50.62;98763.41;5092257;28;20028;-78
2023/04/14 03:14:12;;;;;;;8.02;6.10;;;;;;;15.30;50.67;98771.50;5092078;28;20089;-77
2023/04/14 03:16:39;;;;;;;8.00;6.60;;;;;;;15.28;51.23;98744.34;5092008;28;20102;-77
2023/04/14 03:19:07;;;;;;;9.50;6.53;;;;;;;14.82;51.22;98674.03;5092038;28;20027;-77
2023/04/14 03:21:34;;;;;;;7.55;6.15;;;;;;;15.13;51.25;98736.78;5092040;28;20063;-77
2023/04/14 03:24:01;;;;;;;9.95;7.55;;;;;;;14.86;51.44;98690.31;5091936;28;20028;-78
2023/04/14 03:26:29;;;;;;;10.98;7.30;;;;;;;14.79;51.75;98686.94;5091853;28;20127;-78
2023/04/14 03:28:57;;;;;;;9.85;7.10;;;;;;;14.86;51.92;98687.66;5091844;28;20028;-77
2023/04/14 03:31:29;;;;;;;10.57;6.60;;;;;;;14.94;52.48;98705.97;5091761;28;20480;-77
2023/04/14 03:33:56;;;;;;;10.07;7.68;;;;;;;14.94;52.38;98690.84;5091624;28;20481;-78
2023/04/14 03:36:24;;;;;;;11.45;7.35;;;;;;;14.75;52.89;98662.69;5091488;28;20020;-76
2023/04/14 03:38:54;;;;;;;10.95;7.72;;;;;;;14.68;53.09;98675.25;5091244;28;20020;-78
2023/04/14 03:41:20;;;;;;;10.43;7.22;;;;;;;14.59;53.13;98650.03;5091704;28;20082;-78
2023/04/14 03:43:53;;;;;;;10.98;8.52;;;;;;;15.10;53.94;98728.44;5091524;28;20029;-79
2023/04/14 03:46:19;;;;;;;12.23;7.72;;;;;;;15.04;54.00;98730.16;5091646;28;20047;-78
2023/04/14 03:48:46;;;;;;;10.23;8.05;;;;;;;15.11;54.25;98730.88;5091220;28;20489;-78
2023/04/14 03:51:14;;;;;;;9.35;7.72;;;;;;;15.13;54.41;98728.81;5089903;28;20448;-78
2023/04/14 03:53:42;;;;;;;11.07;7.78;;;;;;;14.78;54.07;98680.03;5091428;28;20031;-78
2023/04/14 03:56:09;;;;;;;11.50;7.70;;;;;;;14.91;53.89;98690.50;5090189;28;20028;-79
2023/04/14 03:58:35;;;;;;;12.10;7.55;;;;;;;15.20;54.37;98734.03;5090156;28;20039;-78
2023/04/14 04:01:02;;;;;;;9.68;7.30;;;;;;;15.25;53.84;98737.63;5091938;28;20451;-78
2023/04/14 04:03:28;;;;;;;11.73;7.63;;;;;;;15.09;53.95;98708.22;5091350;28;20481;-78
2023/04/14 04:05:54;;;;;;;11.93;7.18;;;;;;;15.00;53.83;98709.59;5091181;28;20024;-79
2023/04/14 04:08:22;;;;;;;8.63;7.05;;;;;;;15.27;53.89;98754.16;5091274;28;20042;-79
2023/04/14 04:10:49;;;;;;;11.00;7.43;;;;;;;15.29;54.24;98748.63;5091223;28;20024;-78
2023/04/14 04:13:16;;;;;;;9.85;7.35;;;;;;;15.08;53.86;98711.91;5091307;28;20064;-78
2023/04/14 04:15:44;;;;;;;9.70;7.70;;;;;;;14.94;54.38;98712.09;5091244;28;20468;-78
2023/04/14 04:18:14;;;;;;;11.25;8.07;;;;;;;15.08;54.96;98741.16;5089944;28;20532;-78
2023/04/14 04:20:40;;;;;;;10.65;8.20;;;;;;;15.26;55.01;98751.72;5091241;28;20412;-79
2023/04/14 04:23:08;;;;;;;11.55;8.25;;;;;;;15.01;55.23;98711.19;5089937;28;20515;-79
2023/04/14 04:25:38;;;;;;;10.10;7.72;;;;;;;15.30;55.66;98754.75;5091031;28;20075;-78
2023/04/14 04:28:04;;;;;;;11.35;8.48;;;;;;;15.34;55.30;98759.38;5091070;28;20564;-78
2023/04/14 04:30:31;;;;;;;11.82;9.02;;;;;;;14.98;55.54;98701.03;5091082;28;20107;-78
2023/04/14 04:32:57;;;;;;;14.98;9.50;;;;;;;15.33;56.15;98756.94;5091037;28;20485;-79
2023/04/14 04:35:25;;;;;;;14.23;9.13;;;;;;;14.74;55.94;98669.03;5089747;28;20089;-78
2023/04/14 04:37:52;;;;;;;13.07;8.43;;;;;;;15.12;55.88;98719.22;5091051;28;20024;-78
2023/04/14 04:40:17;;;;;;;10.10;8.20;;;;;;;14.82;56.49;98674.03;5090987;28;20020;-79
2023/04/14 04:42:43;;;;;;;15.10;9.60;;;;;;;15.31;57.00;98762.50;5090988;28;20039;-78
2023/04/14 04:45:09;;;;;;;12.45;8.80;;;;;;;15.31;56.88;98754.53;5091020;28;20031;-78
2023/04/14 04:47:34;;;;;;;13.55;9.18;;;;;;;15.36;56.76;98761.81;5092018;28;20074;-78
2023/04/14 04:50:00;;;;;;;12.13;8.63;;;;;;;15.31;57.18;98748.38;5096966;28;20028;-77
2023/04/14 04:52:25;;;;;;;12.18;9.10;;;;;;;15.32;57.16;98750.00;5093370;28;20044;-79
2023/04/14 04:54:51;;;;;;;13.75;9.55;;;;;;;15.27;57.11;98740.06;5094671;28;20027;-78
2023/04/14 04:57:18;;;;;;;15.25;9.55;;;;;;;15.32;57.12;98760.66;5094719;28;20020;-79
2023/04/14 04:59:43;;;;;;;12.88;9.52;;;;;;;15.27;57.42;98727.56;5094478;28;20515;-78
2023/04/14 05:02:08;;;;;;;12.13;8.18;;;;;;;15.56;57.41;98760.47;5094676;28;20028;-79
2023/04/14 05:04:34;;;;;;;12.80;8.65;;;;;;;15.56;57.74;98764.97;5094528;28;20451;-78
2023/04/14 05:07:02;;;;;;;14.45;9.13;;;;;;;15.45;57.70;98752.47;5094412;28;20389;-77
2023/04/14 05:09:27;;;;;;;15.18;9.70;;;;;;;15.08;57.86;98707.41;5094275;28;20081;-79
2023/04/14 05:11:53;;;;;;;12.23;8.45;;;;;;;15.21;57.97;98727.66;5094089;28;20023;-78
2023/04/14 05:14:18;;;;;;;15.48;9.38;;;;;;;15.09;57.81;98705.56;5092817;28;20032;-79
2023/04/14 05:16:43;;;;;;;13.15;9.23;;;;;;;15.26;58.06;98717.16;5094079;28;20486;-77
2023/04/14 05:19:09;;;;;;;10.23;8.27;;;;;;;15.46;57.93;98746.91;5093962;28;20036;-78
2023/04/14 05:21:34;;;;;;;12.20;8.30;;;;;;;15.43;57.47;98707.47;5093913;28;20054;-78
2023/04/14 05:24:00;;;;;;;11.30;8.18;;;;;;;15.87;57.52;98778.03;5094073;28;20028;-77
2023/04/14 05:26:25;;;;;;;12.20;8.80;;;;;;;15.89;57.83;98780.47;5093971;28;20040;-79
2023/04/14 05:28:51;;;;;;;13.35;8.68;;;;;;;15.78;57.59;98752.78;5094223;28;20023;-78
2023/04/14 05:31:16;;;;;;;10.82;8.40;;;;;;;15.62;57.47;98718.88;5092799;28;20081;-79
2023/04/14 05:33:42;;;;;;;12.90;9.13;;;;;;;15.78;56.95;98736.00;5093813;28;20028;-78
2023/04/14 05:36:07;;;;;;;10.18;8.07;;;;;;;16.03;56.83;98759.75;5092560;28;20111;-78
2023/04/14 05:38:37;;;;;;;12.05;8.43;;;;;;;16.28;56.86;98773.63;5093900;28;20447;-75
2023/04/14 05:41:03;;;;;;;11.77;8.15;;;;;;;16.03;56.27;98717.13;5093757;28;20028;-77
2023/04/14 05:43:28;;;;;;;14.18;8.98;;;;;;;16.44;57.00;98766.78;5093846;28;20035;-78
2023/04/14 05:45:57;;;;;;;11.85;7.65;;;;;;;16.00;56.36;98696.31;5093765;28;20031;-77
2023/04/14 05:48:23;;;;;;;10.15;8.15;;;;;;;16.45;56.48;98744.44;5093623;28;20484;-77
2023/04/14 05:50:49;;;;;;;11.63;8.60;;;;;;;16.05;56.53;98664.47;5093686;28;20030;-78
2023/04/14 05:53:15;;;;;;;16.05;8.73;;;;;;;16.56;56.90;98730.25;5093401;28;20024;-78
2023/04/14 05:55:40;;;;;;;14.20;9.00;;;;;;;16.05;57.18;98640.50;5093563;28;20781;-77
2023/04/14 05:58:06;;;;;;;13.32;8.93;;;;;;;16.57;56.90;98713.22;5093335;28;20024;-78
2023/04/14 06:00:31;;;;;;;11.82;8.35;;;;;;;16.19;56.56;98660.50;5092423;28;20077;-77
2023/04/14 06:02:57;;;;;;;14.40;8.95;;;;;;;16.10;57.00;98621.97;5093320;28;20020;-78
2023/04/14 06:05:23;;;;;;;13.77;9.38;;;;;;;16.83;56.84;98730.53;5093270;28;20034;-77
2023/04/14 06:07:48;;;;;;;11.38;7.82;;;;;;;16.20;56.31;98635.47;5093356;28;20027;-78
2023/04/14 06:10:14;;;;;;;11.65;7.90;;;;;;;16.47;56.02;98657.06;5093039;28;20157;-77
2023/04/14 06:12:39;;;;;;;11.02;7.90;;;;;;;16.87;55.59;98696.22;5091628;28;20176;-77
2023/04/14 06:15:05;;;;;;;9.05;7.45;;;;;;;17.09;55.30;98721.16;5092995;28;20103;-78
2023/04/14 06:17:31;;;;;;;11.82;7.85;;;;;;;17.04;55.04;98697.06;5091705;28;20496;-77
2023/04/14 06:19:57;;;;;;;10.43;7.22;;;;;;;17.39;54.99;98739.56;5092961;28;20599;-78
2023/04/14 06:22:27;;;;;;;9.70;7.78;;;;;;;16.96;55.01;98660.91;5092971;28;20032;-77
2023/04/14 06:24:53;;;;;;;10.85;7.95;;;;;;;17.53;54.97;98729.38;5092682;28;20019;-78
2023/04/14 06:27:19;;;;;;;11.45;8.10;;;;;;;17.61;54.86;98736.97;5092846;28;20028;-78
2023/04/14 06:29:44;;;;;;;10.93;7.40;;;;;;;17.17;54.53;98661.28;5092849;28;20489;-77
2023/04/14 06:32:10;;;;;;;12.88;7.22;;;;;;;17.39;54.20;98695.00;5091461;28;20032;-78
2023/04/14 06:34:35;;;;;;;9.55;7.07;;;;;;;17.81;54.24;98752.53;5092765;28;20032;-79
2023/04/14 06:37:00;;;;;;;12.30;7.38;;;;;;;16.46;54.05;98570.19;5092690;28;20059;-77
2023/04/14 06:39:26;;;;;;;11.25;7.80;;;;;;;17.57;54.01;98717.16;5091336;28;20028;-78
2023/04/14 06:41:51;;;;;;;11.05;7.47;;;;;;;17.48;54.18;98706.09;5092548;28;20078;-77
2023/04/14 06:44:17;;;;;;;12.15;8.10;;;;;;;17.64;54.37;98729.28;5092421;28;20462;-77
2023/04/14 06:46:42;;;;;;;11.15;8.23;;;;;;;17.19;54.22;98654.66;5091141;28;20413;-77
2023/04/14 06:49:08;;;;;;;12.57;7.63;;;;;;;17.86;54.34;98753.44;5092439;28;20488;-78
2023/04/14 06:51:33;;;;;;;14.65;8.25;;;;;;;17.56;54.47;98697.66;5092328;28;20032;-77
2023/04/14 06:53:59;;;;;;;11.18;7.35;;;;;;;18.03;54.45;98767.59;5092615;28;20413;-78
2023/04/14 06:56:25;;;;;;;13.15;8.13;;;;;;;17.52;54.48;98693.06;5091096;28;20032;-77
2023/04/14 06:58:50;;;;;;;14.50;8.50;;;;;;;17.79;54.28;98721.53;5092288;28;20020;-77
2023/04/14 07:01:16;;;;;;;13.25;8.40;;;;;;;18.02;54.47;98767.81;5092441;28;20470;-78
2023/04/14 07:03:41;;;;;;;17.33;8.75;;;;;;;18.06;54.56;98771.63;5092251;28;20176;-75
2023/04/14 07:06:11;;;;;;;11.43;8.27;;;;;;;17.96;54.76;98764.28;5090968;28;20035;-78
2023/04/14 07:08:39;;;;;;;11.40;8.07;;;;;;;17.98;54.80;98770.19;5091996;28;20566;-79
2023/04/14 07:11:07;;;;;;;15.50;8.90;;;;;;;17.56;54.80;98702.19;5090603;28;20058;-78
2023/04/14 07:13:33;;;;;;;13.00;8.77;;;;;;;17.91;54.82;98748.19;5092012;28;20051;-78
2023/04/14 07:16:01;;;;;;;12.27;8.60;;;;;;;18.10;54.74;98778.09;5092088;28;20032;-78
2023/04/14 07:18:26;;;;;;;12.80;8.73;;;;;;;18.10;54.89;98770.09;5092065;28;20415;-78
2023/04/14 07:20:53;;;;;;;12.90;8.68;;;;;;;18.12;54.67;98777.84;5092123;28;20036;-77
2023/04/14 07:23:18;;;;;;;11.95;8.52;;;;;;;17.91;54.41;98718.78;5090452;28;20493;-78
2023/04/14 07:25:48;;;;;;;11.13;8.50;;;;;;;17.84;54.71;98733.38;5090223;28;20079;-77
2023/04/14 07:28:13;;;;;;;8.80;7.90;;;;;;;18.06;54.80;98758.28;5091698;28;20481;-76
2023/04/14 07:30:38;;;;;;;12.27;8.60;;;;;;;18.00;55.05;98748.56;5091741;28;20020;-79
2023/04/14 07:33:04;;;;;;;13.18;7.80;;;;;;;17.60;54.93;98679.31;5091537;28;20107;-77
2023/04/14 07:35:29;;;;;;;14.23;8.85;;;;;;;17.34;54.99;98643.41;5091473;28;20107;-77
2023/04/14 07:37:55;;;;;;;13.13;8.40;;;;;;;17.63;54.77;98676.94;5090263;28;20028;-77
2023/04/14 07:40:20;;;;;;;13.15;7.93;;;;;;;17.55;55.09;98680.03;5091783;28;20103;-77
2023/04/14 07:42:46;;;;;;;14.15;8.00;;;;;;;17.75;55.21;98709.72;5091499;28;20485;-78
2023/04/14 07:45:12;;;;;;;12.05;7.68;;;;;;;18.03;55.11;98743.53;5090206;28;20034;-76
2023/04/14 07:47:37;;;;;;;10.05;7.38;;;;;;;18.09;54.95;98747.91;5091385;28;20028;-78
2023/04/14 07:50:03;;;;;;;14.90;8.40;;;;;;;17.73;54.82;98682.47;5091499;28;20024;-77
2023/04/14 07:52:28;;;;;;;10.40;7.18;;;;;;;18.20;54.82;98745.38;5091259;28;20028;-79
2023/04/14 07:54:54;;;;;;;13.25;7.60;;;;;;;18.14;55.01;98743.69;5091481;28;20485;-77
2023/04/14 07:57:20;;;;;;;9.73;6.63;;;;;;;17.48;54.89;98647.38;5090085;28;20036;-78
2023/04/14 07:59:45;;;;;;;9.95;7.20;;;;;;;18.19;54.94;98733.88;5091352;28;20031;-79
2023/04/14 08:02:11;;;;;;;10.35;6.82;;;;;;;18.08;54.78;98729.44;5091434;28;20028;-76
2023/04/14 08:04:36;;;;;;;13.55;7.05;;;;;;;18.18;55.04;98750.16;5090166;28;20020;-77
2023/04/14 08:07:02;;;;;;;9.82;6.38;;;;;;;17.94;54.72;98715.63;5091238;28;20480;-76
2023/04/14 08:09:27;;;;;;;12.38;7.07;;;;;;;17.88;54.71;98705.13;5091364;28;20056;-76
2023/04/14 08:11:53;;;;;;;14.02;7.13;;;;;;;18.09;54.72;98728.41;5091186;28;20059;-77
2023/04/14 08:14:18;;;;;;;11.35;7.00;;;;;;;17.73;54.71;98674.47;5091198;28;20032;-78
2023/04/14 08:16:43;;;;;;;11.88;6.80;;;;;;;18.24;54.78;98752.66;5091156;28;20533;-77
2023/04/14 08:19:09;;;;;;;10.50;6.47;;;;;;;18.25;54.77;98743.56;5091119;28;20028;-78
2023/04/14 08:21:35;;;;;;;11.75;6.72;;;;;;;18.30;54.81;98754.31;5091055;28;20509;-78
2023/04/14 08:24:00;;;;;;;10.68;6.53;;;;;;;18.05;54.78;98696.03;5092737;28;20024;-77
2023/04/14 08:26:28;;;;;;;10.10;6.85;;;;;;;18.38;54.61;98737.88;5094976;28;20413;-78
2023/04/14 08:28:54;;;;;;;9.68;6.72;;;;;;;18.13;54.29;98685.97;5077176;28;20030;-78
2023/04/14 08:31:23;;;;;;;10.98;7.40;;;;;;;18.54;54.34;98732.69;5093644;28;20026;-78
2023/04/14 08:33:49;;;;;;;11.02;6.60;;;;;;;18.53;54.27;98733.75;5093442;28;20111;-79
2023/04/14 08:36:15;;;;;;;13.52;6.40;;;;;;;18.07;54.47;98645.03;5094984;28;20153;-78
2023/04/14 08:38:40;;;;;;;10.23;7.28;;;;;;;18.29;54.40;98667.19;5093777;28;20039;-78
2023/04/14 08:41:08;;;;;;;15.15;7.18;;;;;;;18.52;54.51;98730.28;5095030;28;20102;-78
2023/04/14 08:43:36;;;;;;;14.05;7.45;;;;;;;18.02;54.97;98658.31;5095080;28;20027;-77
2023/04/14 08:46:03;;;;;;;11.10;6.43;;;;;;;17.56;55.53;98590.91;5094583;28;20032;-77
2023/04/14 08:48:30;;;;;;;11.43;7.72;;;;;;;18.31;55.61;98701.69;5093419;28;20024;-78
2023/04/14 08:51:21;;;;;;;9.85;6.43;;;;;;;18.30;55.49;98716.09;5093403;28;20111;-79
2023/04/14 08:53:47;;;;;;;12.57;7.55;;;;;;;18.32;55.53;98714.00;5094589;28;20555;-77
2023/04/14 08:56:16;;;;;;;15.82;7.45;;;;;;;18.32;56.06;98712.13;5094761;28;20036;-77
2023/04/14 08:58:43;;;;;;;12.48;6.80;;;;;;;18.43;55.12;98711.19;5094753;28;20027;-77
2023/04/14 09:01:08;;;;;;;11.60;5.85;;;;;;;17.98;55.43;98655.34;5094591;28;20059;-78
2023/04/14 09:03:36;;;;;;;10.85;6.43;;;;;;;18.37;54.98;98712.19;5094545;28;20103;-77
2023/04/14 09:06:01;;;;;;;11.65;6.30;;;;;;;17.52;55.06;98563.09;5094609;28;20058;-77
2023/04/14 09:08:27;;;;;;;13.02;6.85;;;;;;;18.39;55.20;98695.91;5093143;28;20099;-78
2023/04/14 09:10:53;;;;;;;11.23;6.50;;;;;;;18.47;55.14;98721.38;5092858;28;20064;-78
2023/04/14 09:13:20;;;;;;;8.35;5.95;;;;;;;18.43;55.14;98731.78;5094099;28;20107;-78
2023/04/14 09:15:45;;;;;;;11.82;5.97;;;;;;;18.04;55.15;98688.25;5094239;28;20032;-79
2023/04/14 09:18:11;;;;;;;8.68;5.38;;;;;;;17.85;55.24;98666.38;5092855;28;20031;-76
2023/04/14 09:20:37;;;;;;;10.98;5.25;;;;;;;17.78;55.21;98666.53;5094252;28;20408;-78
2023/04/14 09:23:03;;;;;;;11.00;5.25;;;;;;;18.19;55.14;98739.22;5092706;28;20016;-78
2023/04/14 09:25:28;;;;;;;13.43;5.28;;;;;;;18.22;54.97;98730.72;5092411;28;20048;-78
2023/04/14 09:27:54;;;;;;;12.80;6.30;;;;;;;18.19;55.08;98751.78;5093845;28;20023;-78
2023/04/14 09:30:20;;;;;;;13.45;6.40;;;;;;;18.18;55.05;98742.13;5093883;28;20027;-78
2023/04/14 09:32:52;;;;;;;10.90;5.47;;;;;;;17.81;54.88;98683.91;5092567;28;20024;-79
2023/04/14 09:35:17;;;;;;;10.50;4.82;;;;;;;17.87;54.92;98703.50;5091274;28;20024;-77
2023/04/14 09:37:45;;;;;;;10.40;4.85;;;;;;;17.79;54.77;98676.16;5093755;28;20028;-78
2023/04/14 09:40:26;;;;;;;9.00;4.18;;;;;;;18.10;54.53;98727.34;5093670;28;20107;-75
2023/04/14 09:42:53;;;;;;;8.88;4.30;;;;;;;18.38;54.41;98755.75;5093860;28;20020;-77
2023/04/14 09:45:18;;;;;;;9.82;4.32;;;;;;;17.85;54.61;98671.72;5093706;28;20119;-78
2023/04/14 09:47:44;;;;;;;13.90;4.72;;;;;;;18.10;54.05;98677.38;5093595;28;20067;-77
2023/04/14 09:50:09;;;;;;;8.95;4.40;;;;;;;18.46;53.98;98747.31;5092461;28;20504;-79
2023/04/14 09:52:40;;;;;;;9.48;4.53;;;;;;;18.48;53.76;98744.38;5093558;28;20120;-78
2023/04/14 09:55:15;;;;;;;12.02;4.10;;;;;;;18.25;53.56;98689.31;5075431;28;20049;-78
2023/04/14 09:57:42;;;;;;;11.20;4.72;;;;;;;18.70;53.39;98772.00;5073224;28;20108;-77
2023/04/14 10:00:19;;;;;;;9.63;4.38;;;;;;;18.46;53.65;98725.13;5071650;28;20445;-79
2023/04/14 10:02:54;;;;;;;8.98;4.85;;;;;;;18.66;53.40;98749.47;5071669;28;20389;-78
2023/04/14 10:05:21;;;;;;;9.40;4.50;;;;;;;18.62;52.86;98709.06;5072998;28;20032;-78
2023/04/14 10:07:46;;;;;;;8.55;4.43;;;;;;;18.81;53.00;98760.34;5073115;28;20035;-79
2023/04/14 10:10:12;;;;;;;8.48;4.82;;;;;;;19.07;52.68;98769.47;5072942;28;20417;-78
2023/04/14 10:12:45;;;;;;;10.48;4.68;;;;;;;18.96;52.33;98760.53;5072901;28;20028;-78
2023/04/14 10:15:11;;;;;;;10.68;4.22;;;;;;;19.32;51.99;98779.59;5071564;28;20046;-77
2023/04/14 10:17:41;;;;;;;12.45;4.40;;;;;;;19.10;51.74;98749.41;5072928;28;20028;-78
2023/04/14 10:20:07;;;;;;;12.43;4.32;;;;;;;19.62;51.58;98822.78;5072934;28;20031;-77
2023/04/14 10:22:33;;;;;;;11.30;4.53;;;;;;;19.70;51.26;98777.84;5072909;28;20059;-78
2023/04/14 10:24:59;;;;;;;7.60;3.92;;;;;;;20.10;50.16;98745.19;5072708;28;20048;-78
2023/04/14 10:27:27;;;;;;;9.80;4.55;;;;;;;20.37;49.48;98732.47;5071613;28;20394;-77
2023/04/14 10:29:53;;;;;;;9.60;3.95;;;;;;;20.80;48.65;98749.28;5072867;28;20032;-76
2023/04/14 10:32:20;;;;;;;7.07;4.18;;;;;;;21.04;47.59;98737.03;5072655;28;20039;-79
2023/04/14 10:35:07;;;;;;;9.70;3.83;;;;;;;21.38;47.09;98739.25;5072240;28;20029;-79
2023/04/14 10:37:33;;;;;;;6.60;3.60;;;;;;;21.89;46.42;98808.06;5072295;28;20050;-78
2023/04/14 10:40:00;;;;;;;7.35;4.20;;;;;;;21.89;46.31;98804.56;5072381;28;20436;-78
2023/04/14 10:42:29;;;;;;;9.98;4.35;;;;;;;22.14;46.00;98812.63;5072515;28;20028;-78
2023/04/14 10:45:07;;;;;;;5.82;3.47;;;;;;;22.42;45.45;98818.53;5072369;28;20096;-78
2023/04/14 10:47:34;;;;;;;7.18;3.88;;;;;;;22.55;45.25;98823.34;5072100;28;20077;-77
2023/04/14 10:50:13;;;;;;;6.47;3.33;;;;;;;22.47;44.83;98799.69;5072189;28;20017;-78
2023/04/14 10:52:49;;;;;;;6.15;3.78;;;;;;;22.30;45.28;98812.63;5072013;28;20093;-79
2023/04/14 10:55:15;;;;;;;10.30;4.55;;;;;;;22.34;45.26;98819.09;5072153;28;20536;-76
2023/04/14 10:57:42;;;;;;;7.82;4.40;;;;;;;22.38;45.12;98798.63;5072080;28;20052;-77
2023/04/14 11:00:24;;;;;;;6.47;3.78;;;;;;;22.56;44.89;98794.53;5072045;28;20412;-78
2023/04/14 11:03:16;;;;;;;7.10;4.18;;;;;;;22.29;45.04;98779.53;5071980;28;20025;-78
2023/04/14 11:05:48;;;;;;;5.32;3.28;;;;;;;21.89;45.26;98742.75;5070723;28;20505;-78
2023/04/14 11:08:18;;;;;;;;;;;;;;;22.02;45.68;98789.78;5072281;28;20055;-77
2023/04/14 11:10:50;;;;;;;7.35;4.32;;;;;;;21.54;46.27;98778.47;5071821;28;19937;-78
2023/04/14 11:13:15;;;;;;;9.73;4.40;;;;;;;21.50;46.67;98810.44;5071952;28;20025;-78
2023/04/14 11:15:44;;;;;;;7.43;4.10;;;;;;;21.43;46.88;98862.81;5071545;28;20027;-77
2023/04/14 11:18:19;;;;;;;8.98;4.15;;;;;;;21.43;46.75;98804.53;5071904;28;20035;-78
2023/04/14 11:20:44;;;;;;;8.27;4.20;;;;;;;21.17;47.10;98757.19;5070422;28;20020;-77
2023/04/14 11:23:13;;;;;;;9.10;4.82;;;;;;;21.39;47.25;98778.47;5071728;28;20017;-77
2023/04/14 11:25:39;;;;;;;11.77;4.55;;;;;;;21.26;47.39;98785.16;5071549;28;20059;-77
2023/04/14 11:28:04;;;;;;;6.38;3.70;;;;;;;20.84;47.59;98753.09;5071617;28;20024;-77
2023/04/14 11:30:30;;;;;;;8.40;4.32;;;;;;;20.78;48.17;98751.44;5070263;28;20023;-78
2023/04/14 11:32:57;;;;;;;8.27;4.07;;;;;;;20.90;48.18;98766.25;5071618;28;20017;-78